Time;durP1;ratioP1;P1;durP2;ratioP2;P2;SDS_P1;SDS_P2;PMS_P1;PMS_P2;Temp;Humidity;BMP_temperature;BMP_pressure;BME280_temperature;BME280_humidity;BME280_pressure;Samples;Min_cycle;Max_cycle;Signal;HPM_P1;HPM_P2
2022/03/30 00:01:17;;;;;;;38.88;22.23;;;;;;;;;;5040015;28;20033;-93
2022/03/30 00:03:43;;;;;;;38.58;21.88;;;;;;;;;;5039773;28;20087;-93
2022/03/30 00:06:09;;;;;;;36.88;22.13;;;;;;;;;;5039509;28;20117;-93
2022/03/30 00:08:35;;;;;;;42.72;22.98;;;;;;;;;;5038707;28;20033;-93
2022/03/30 00:11:01;;;;;;;35.53;22.23;;;;;;;;;;5038452;28;20507;-93
2022/03/30 00:13:27;;;;;;;40.88;22.15;;;;;;;;;;5038505;28;20029;-93
2022/03/30 00:15:54;;;;;;;36.55;22.35;;;;;;;;;;5038271;28;20419;-92
2022/03/30 00:18:20;;;;;;;35.55;21.40;;;;;;;;;;5038451;28;20033;-93
2022/03/30 00:20:46;;;;;;;35.60;21.20;;;;;;;;;;5039521;28;20033;-93
2022/03/30 00:23:12;;;;;;;35.00;19.73;;;;;;;;;;5039442;28;20101;-93
2022/03/30 00:25:39;;;;;;;36.70;20.08;;;;;;;;;;5038196;28;20026;-93
2022/03/30 00:28:05;;;;;;;32.08;19.98;;;;;;;;;;5039180;28;20033;-92
2022/03/30 00:30:31;;;;;;;33.50;19.80;;;;;;;;;;5038881;28;20125;-94
2022/03/30 00:32:57;;;;;;;31.65;18.92;;;;;;;;;;5038923;28;20029;-94
2022/03/30 00:35:23;;;;;;;29.38;17.88;;;;;;;;;;5038975;28;20068;-93
2022/03/30 00:37:50;;;;;;;28.05;17.75;;;;;;;;;;5037776;28;20065;-93
2022/03/30 00:40:16;;;;;;;27.17;17.27;;;;;;;;;;5038111;28;20025;-93
2022/03/30 00:42:42;;;;;;;30.38;17.05;;;;;;;;;;5038978;28;20025;-93
2022/03/30 00:45:10;;;;;;;27.38;16.52;;;;;;;;;;5038752;28;20416;-95
2022/03/30 00:47:37;;;;;;;25.85;15.77;;;;;;;;;;5037773;28;20446;-95
2022/03/30 00:50:04;;;;;;;27.65;16.50;;;;;;;;;;5038742;28;20029;-93
2022/03/30 00:52:30;;;;;;;25.80;15.68;;;;;;;;;;5038655;28;20124;-93
2022/03/30 00:54:57;;;;;;;28.38;15.75;;;;;;;;;;5038648;28;20087;-92
2022/03/30 00:57:23;;;;;;;26.65;15.65;;;;;;;;;;5038599;28;20109;-93
2022/03/30 00:59:50;;;;;;;26.98;16.52;;;;;;;;;;5038553;28;20029;-95
2022/03/30 01:02:16;;;;;;;29.55;16.65;;;;;;;;;;5038395;28;20128;-95
2022/03/30 01:04:45;;;;;;;25.45;15.85;;;;;;;;;;5037565;28;20018;-93
2022/03/30 01:07:11;;;;;;;26.27;15.90;;;;;;;;;;5038326;28;20462;-94
2022/03/30 01:09:37;;;;;;;23.65;16.25;;;;;;;;;;5038260;28;20407;-95
2022/03/30 01:12:04;;;;;;;24.73;15.63;;;;;;;;;;5038159;28;20055;-93
2022/03/30 01:14:31;;;;;;;22.92;15.30;;;;;;;;;;5038111;28;20021;-93
2022/03/30 01:16:58;;;;;;;24.88;15.20;;;;;;;;;;5037445;28;20026;-93
2022/03/30 01:19:28;;;;;;;25.25;14.38;;;;;;;;;;5038159;28;20021;-94
2022/03/30 01:21:54;;;;;;;26.30;15.43;;;;;;;;;;5038273;28;20024;-92
2022/03/30 01:24:20;;;;;;;27.85;16.05;;;;;;;;;;5038261;28;20021;-93
2022/03/30 01:26:46;;;;;;;25.25;15.40;;;;;;;;;;5038038;28;20068;-94
2022/03/30 01:34:42;;;;;;;28.77;16.35;;;;;;;;;;5038299;28;20083;-93
2022/03/30 01:37:09;;;;;;;23.50;15.10;;;;;;;;;;5036880;28;20037;-94
2022/03/30 01:39:35;;;;;;;24.63;15.73;;;;;;;;;;5037275;28;20026;-94
2022/03/30 01:42:01;;;;;;;26.00;15.48;;;;;;;;;;5037923;28;20108;-93
2022/03/30 01:44:27;;;;;;;27.50;15.73;;;;;;;;;;5037871;28;20021;-93
2022/03/30 01:46:53;;;;;;;25.25;15.52;;;;;;;;;;5037684;28;20030;-93
2022/03/30 01:49:21;;;;;;;28.80;16.45;;;;;;;;;;5036896;28;20435;-93
2022/03/30 01:51:50;;;;;;;26.63;16.85;;;;;;;;;;5037714;28;20048;-92
2022/03/30 01:54:17;;;;;;;27.58;15.18;;;;;;;;;;5038073;28;20029;-93
2022/03/30 01:56:43;;;;;;;24.52;15.10;;;;;;;;;;5037543;28;20034;-94
2022/03/30 01:59:09;;;;;;;26.67;15.25;;;;;;;;;;5037569;28;20419;-93
2022/03/30 02:01:35;;;;;;;24.33;15.75;;;;;;;;;;5036730;28;20029;-92
2022/03/30 02:04:01;;;;;;;25.98;15.55;;;;;;;;;;5036572;28;20124;-92
2022/03/30 02:06:27;;;;;;;26.98;15.32;;;;;;;;;;5037473;28;20064;-91
2022/03/30 02:08:53;;;;;;;22.58;15.18;;;;;;;;;;5036279;28;20436;-92
2022/03/30 02:11:20;;;;;;;25.25;15.25;;;;;;;;;;5037815;28;20052;-93
2022/03/30 02:13:46;;;;;;;23.55;14.95;;;;;;;;;;5038344;28;20037;-92
2022/03/30 02:16:12;;;;;;;29.52;15.07;;;;;;;;;;5041426;28;20478;-93
2022/03/30 02:18:38;;;;;;;27.38;15.85;;;;;;;;;;5041721;28;20372;-95
2022/03/30 02:21:05;;;;;;;25.40;16.50;;;;;;;;;;5041583;28;20023;-93
2022/03/30 02:23:31;;;;;;;27.20;15.15;;;;;;;;;;5041524;28;20083;-93
2022/03/30 02:25:57;;;;;;;27.25;15.00;;;;;;;;;;5040388;28;20025;-94
2022/03/30 02:28:23;;;;;;;26.42;15.32;;;;;;;;;;5041541;28;20014;-94
2022/03/30 02:30:49;;;;;;;27.98;14.82;;;;;;;;;;5040092;28;20050;-93
2022/03/30 02:33:15;;;;;;;29.27;15.38;;;;;;;;;;5041630;28;20104;-93
2022/03/30 02:35:41;;;;;;;26.73;15.30;;;;;;;;;;5041031;28;20108;-94
2022/03/30 02:38:07;;;;;;;24.52;14.63;;;;;;;;;;5041129;28;20071;-95
2022/03/30 02:40:33;;;;;;;22.38;14.43;;;;;;;;;;5041089;28;20030;-94
2022/03/30 02:42:59;;;;;;;28.23;15.50;;;;;;;;;;5041043;28;20025;-93
2022/03/30 02:45:25;;;;;;;26.17;15.13;;;;;;;;;;5040253;28;20022;-93
2022/03/30 02:50:36;;;;;;;24.27;14.93;;;;;;;;;;5041255;28;20075;-94
2022/03/30 02:53:02;;;;;;;27.33;14.93;;;;;;;;;;5040944;28;20033;-93
2022/03/30 02:55:28;;;;;;;30.30;14.63;;;;;;;;;;5041130;28;20315;-93
2022/03/30 02:57:54;;;;;;;28.08;14.48;;;;;;;;;;5040723;28;20033;-92
2022/03/30 03:00:21;;;;;;;25.70;15.35;;;;;;;;;;5040921;28;20443;-93
2022/03/30 03:02:47;;;;;;;23.27;13.43;;;;;;;;;;5040863;28;20021;-92
2022/03/30 03:05:14;;;;;;;32.42;14.20;;;;;;;;;;5040692;28;20025;-94
2022/03/30 03:07:41;;;;;;;23.13;14.27;;;;;;;;;;5040623;28;20053;-92
2022/03/30 03:10:09;;;;;;;27.05;14.05;;;;;;;;;;5040680;28;20297;-92
2022/03/30 03:12:35;;;;;;;29.20;14.48;;;;;;;;;;5040695;28;20030;-91
2022/03/30 03:15:01;;;;;;;29.27;14.18;;;;;;;;;;5040559;28;20396;-94
2022/03/30 03:17:27;;;;;;;28.98;13.70;;;;;;;;;;5040415;28;20022;-95
2022/03/30 03:19:53;;;;;;;25.15;13.25;;;;;;;;;;5040664;28;20025;-94
2022/03/30 03:22:20;;;;;;;27.25;13.32;;;;;;;;;;5040389;28;20067;-94
2022/03/30 03:24:46;;;;;;;25.13;13.98;;;;;;;;;;5040228;28;20363;-95
2022/03/30 03:27:12;;;;;;;28.40;13.90;;;;;;;;;;5039306;28;20087;-93
2022/03/30 03:29:38;;;;;;;36.63;18.27;;;;;;;;;;5039159;28;20081;-94
2022/03/30 03:32:05;;;;;;;52.10;21.27;;;;;;;;;;5040433;28;20033;-94
2022/03/30 03:34:31;;;;;;;43.03;20.35;;;;;;;;;;5040796;28;20037;-90
2022/03/30 03:36:57;;;;;;;43.67;20.52;;;;;;;;;;5038985;28;20048;-93
2022/03/30 03:39:23;;;;;;;40.95;18.85;;;;;;;;;;5040199;28;20028;-93
2022/03/30 03:41:49;;;;;;;35.10;16.92;;;;;;;;;;5039996;28;20391;-93
2022/03/30 03:44:15;;;;;;;34.25;16.83;;;;;;;;;;5040186;28;20026;-95
2022/03/30 03:46:41;;;;;;;31.55;16.15;;;;;;;;;;5039136;28;20029;-94
2022/03/30 03:49:08;;;;;;;30.40;16.65;;;;;;;;;;5039765;28;20025;-94
2022/03/30 03:51:34;;;;;;;32.05;16.10;;;;;;;;;;5040062;28;20075;-94
2022/03/30 03:54:00;;;;;;;35.22;16.83;;;;;;;;;;5039756;28;20034;-95
2022/03/30 03:56:27;;;;;;;34.70;16.13;;;;;;;;;;5039700;28;20036;-93
2022/03/30 03:58:55;;;;;;;30.05;15.85;;;;;;;;;;5039919;28;20104;-95
2022/03/30 04:01:21;;;;;;;30.10;15.20;;;;;;;;;;5039787;28;20022;-95
2022/03/30 04:03:47;;;;;;;30.92;15.23;;;;;;;;;;5038697;28;20021;-95
2022/03/30 04:06:14;;;;;;;30.38;14.02;;;;;;;;;;5039738;28;20135;-93
2022/03/30 04:08:40;;;;;;;29.70;13.55;;;;;;;;;;5039573;28;20021;-94
2022/03/30 04:11:06;;;;;;;24.88;13.10;;;;;;;;;;5039440;28;20029;-94
2022/03/30 04:13:32;;;;;;;23.08;12.32;;;;;;;;;;5039562;28;20029;-92
2022/03/30 04:15:58;;;;;;;25.73;12.45;;;;;;;;;;5039448;28;20026;-92
2022/03/30 04:18:24;;;;;;;22.02;10.85;;;;;;;;;;5039445;28;20021;-92
2022/03/30 04:20:50;;;;;;;21.83;11.68;;;;;;;;;;5039346;28;20080;-93
2022/03/30 04:23:16;;;;;;;20.85;11.02;;;;;;;;;;5039292;28;20422;-92
2022/03/30 04:25:42;;;;;;;22.20;10.98;;;;;;;;;;5039060;28;20014;-93
2022/03/30 04:28:08;;;;;;;33.13;15.60;;;;;;;;;;5041313;28;20112;-93
2022/03/30 04:30:34;;;;;;;22.30;10.35;;;;;;;;;;5038632;28;20041;-96
2022/03/30 04:33:00;;;;;;;31.63;11.75;;;;;;;;;;5037879;28;20032;-95
2022/03/30 04:35:26;;;;;;;26.25;11.68;;;;;;;;;;5038797;28;20125;-94
2022/03/30 04:40:56;;;;;;;28.40;13.02;;;;;;;;;;5038803;28;20446;-94
2022/03/30 04:43:22;;;;;;;26.42;12.25;;;;;;;;;;5029365;28;20349;-93
2022/03/30 04:45:48;;;;;;;28.27;12.30;;;;;;;;;;5038462;28;20411;-91
2022/03/30 04:48:17;;;;;;;27.77;12.43;;;;;;;;;;5020655;28;20156;-91
2022/03/30 04:50:44;;;;;;;25.85;11.70;;;;;;;;;;5042815;28;20052;-96
2022/03/30 04:56:14;;;;;;;31.13;11.38;;;;;;;;;;5043256;28;20455;-96
2022/03/30 04:58:40;;;;;;;35.85;11.75;;;;;;;;;;5039141;28;20026;-95
2022/03/30 05:01:06;;;;;;;28.25;12.23;;;;;;;;;;5054966;28;20408;-95
2022/03/30 05:03:32;;;;;;;34.78;12.82;;;;;;;;;;5038442;28;20032;-94
2022/03/30 05:05:59;;;;;;;31.90;13.00;;;;;;;;;;5038639;28;20041;-95
2022/03/30 05:08:25;;;;;;;28.33;11.13;;;;;;;;;;5038465;28;20412;-95
2022/03/30 05:10:51;;;;;;;34.63;11.57;;;;;;;;;;5054177;28;20128;-96
2022/03/30 05:13:17;;;;;;;19.80;9.98;;;;;;;;;;5038431;28;20025;-95
2022/03/30 05:15:43;;;;;;;24.27;10.25;;;;;;;;;;5038380;28;20029;-94
2022/03/30 05:18:11;;;;;;;26.85;11.52;;;;;;;;;;5038258;28;20028;-96
2022/03/30 05:20:37;;;;;;;29.92;10.65;;;;;;;;;;5053898;28;20412;-96
2022/03/30 05:23:03;;;;;;;36.15;12.68;;;;;;;;;;5038508;28;20059;-94
2022/03/30 05:25:29;;;;;;;34.67;12.35;;;;;;;;;;5038308;28;20037;-95
2022/03/30 05:27:56;;;;;;;31.88;11.85;;;;;;;;;;5038246;28;20060;-96
2022/03/30 05:30:22;;;;;;;37.28;13.30;;;;;;;;;;5053592;28;20053;-96
2022/03/30 05:32:49;;;;;;;31.20;11.48;;;;;;;;;;5038035;28;20030;-95
2022/03/30 05:35:15;;;;;;;30.23;11.52;;;;;;;;;;5038245;28;20025;-95
2022/03/30 05:37:41;;;;;;;32.10;11.95;;;;;;;;;;5053413;28;20029;-96
2022/03/30 05:40:09;;;;;;;30.42;12.07;;;;;;;;;;5037899;28;20071;-94
2022/03/30 05:42:35;;;;;;;28.50;11.25;;;;;;;;;;5037992;28;20033;-95
2022/03/30 05:45:02;;;;;;;28.42;11.70;;;;;;;;;;5053779;28;20324;-96
2022/03/30 05:47:28;;;;;;;37.90;13.45;;;;;;;;;;5037959;28;20029;-95
2022/03/30 05:49:55;;;;;;;34.55;15.82;;;;;;;;;;5052669;28;20040;-95
2022/03/30 05:52:21;;;;;;;65.68;36.40;;;;;;;;;;5037940;28;20030;-95
2022/03/30 05:54:47;;;;;;;72.18;34.05;;;;;;;;;;5037514;28;20033;-95
2022/03/30 05:57:13;;;;;;;52.30;23.67;;;;;;;;;;5037940;28;20121;-95
2022/03/30 05:59:40;;;;;;;52.30;19.90;;;;;;;;;;5037591;28;20430;-95
2022/03/30 06:02:08;;;;;;;37.67;16.55;;;;;;;;;;5037851;28;20055;-93
2022/03/30 06:04:34;;;;;;;47.83;18.65;;;;;;;;;;5037744;28;20017;-95
2022/03/30 06:07:01;;;;;;;39.05;17.65;;;;;;;;;;5037646;28;20036;-96
2022/03/30 06:09:33;;;;;;;50.65;22.08;;;;;;;;;;5053079;28;20404;-96
2022/03/30 06:11:59;;;;;;;57.03;25.73;;;;;;;;;;5037620;28;20029;-95
2022/03/30 06:14:25;;;;;;;78.05;29.17;;;;;;;;;;5037640;28;20029;-95
2022/03/30 06:16:51;;;;;;;60.00;23.08;;;;;;;;;;5037346;28;20049;-96
2022/03/30 06:19:18;;;;;;;45.80;18.95;;;;;;;;;;5037521;28;20415;-95
2022/03/30 06:21:44;;;;;;;48.88;18.33;;;;;;;;;;5038081;28;20022;-94
2022/03/30 06:24:11;;;;;;;59.35;19.60;;;;;;;;;;5040483;28;20014;-96
2022/03/30 06:29:20;;;;;;;46.90;14.75;;;;;;;;;;5551279;23;20132;-96
2022/03/30 06:32:08;;;;;;;32.00;11.38;;;;;;;;;;5050312;28;20044;-96
2022/03/30 06:34:35;;;;;;;31.02;11.82;;;;;;;;;;5063931;28;20017;-96
2022/03/30 06:39:37;;;;;;;35.38;11.88;;;;;;;;;;5114741;22;20067;-96
2022/03/30 06:42:04;;;;;;;36.58;14.45;;;;;;;;;;5038762;28;20416;-96
2022/03/30 06:44:32;;;;;;;34.30;10.90;;;;;;;;;;5040847;28;20022;-96
2022/03/30 06:47:00;;;;;;;32.95;10.43;;;;;;;;;;5042800;28;20036;-95
2022/03/30 06:49:26;;;;;;;37.88;11.52;;;;;;;;;;5039880;28;20021;-96
2022/03/30 06:51:53;;;;;;;31.35;10.45;;;;;;;;;;5038754;28;20160;-96
2022/03/30 06:54:19;;;;;;;28.27;9.98;;;;;;;;;;5038853;28;20025;-96
2022/03/30 06:56:46;;;;;;;38.28;14.25;;;;;;;;;;5040682;28;20037;-91
2022/03/30 06:59:13;;;;;;;33.13;11.38;;;;;;;;;;5036182;28;20053;-92
2022/03/30 07:01:39;;;;;;;28.63;10.93;;;;;;;;;;5040703;28;20025;-91
2022/03/30 07:04:05;;;;;;;37.33;13.20;;;;;;;;;;5040889;28;20021;-91
2022/03/30 07:06:31;;;;;;;44.47;13.65;;;;;;;;;;5040640;28;20407;-92
2022/03/30 07:11:42;;;;;;;33.97;10.52;;;;;;;;;;5040915;28;20339;-92
2022/03/30 07:14:08;;;;;;;29.05;10.27;;;;;;;;;;5040475;28;20028;-90
2022/03/30 07:16:34;;;;;;;28.88;8.02;;;;;;;;;;5040622;28;20440;-90
2022/03/30 07:19:00;;;;;;;24.50;7.70;;;;;;;;;;5040814;28;20046;-92
2022/03/30 07:21:27;;;;;;;27.98;7.32;;;;;;;;;;5039614;28;20029;-92
2022/03/30 07:23:54;;;;;;;26.50;8.15;;;;;;;;;;5040214;28;20427;-92
2022/03/30 07:26:20;;;;;;;35.85;8.98;;;;;;;;;;5040446;28;20021;-92
2022/03/30 07:28:46;;;;;;;25.90;7.75;;;;;;;;;;5040314;28;20526;-91
2022/03/30 07:31:13;;;;;;;21.88;7.40;;;;;;;;;;5040457;28;20049;-91
2022/03/30 07:33:39;;;;;;;20.55;7.00;;;;;;;;;;5040248;28;20029;-92
2022/03/30 07:36:05;;;;;;;23.08;6.63;;;;;;;;;;5040370;28;20021;-91
2022/03/30 07:38:31;;;;;;;22.40;7.47;;;;;;;;;;5039758;28;20036;-92
2022/03/30 07:41:00;;;;;;;26.67;8.95;;;;;;;;;;5040150;28;20315;-92
2022/03/30 07:43:26;;;;;;;33.40;10.35;;;;;;;;;;5022007;28;20029;-92
2022/03/30 07:45:53;;;;;;;28.90;8.07;;;;;;;;;;5040157;28;20495;-92
2022/03/30 07:48:20;;;;;;;24.90;8.05;;;;;;;;;;5040323;28;20064;-90
2022/03/30 07:50:46;;;;;;;25.15;7.78;;;;;;;;;;5039922;28;20323;-89
2022/03/30 07:53:12;;;;;;;20.73;6.78;;;;;;;;;;5022630;28;20075;-91
2022/03/30 07:55:39;;;;;;;23.63;7.25;;;;;;;;;;5039916;28;20029;-91
2022/03/30 07:58:05;;;;;;;28.75;7.78;;;;;;;;;;5039816;28;20376;-91
2022/03/30 08:00:31;;;;;;;22.88;7.45;;;;;;;;;;5039500;28;20033;-90
2022/03/30 08:02:58;;;;;;;30.08;9.23;;;;;;;;;;5039833;28;20021;-90
2022/03/30 08:05:24;;;;;;;26.85;8.75;;;;;;;;;;5022212;28;20022;-91
2022/03/30 08:07:50;;;;;;;29.45;6.88;;;;;;;;;;5021350;28;20117;-90
2022/03/30 08:10:17;;;;;;;22.77;6.13;;;;;;;;;;5039528;28;20037;-90
2022/03/30 08:12:44;;;;;;;22.95;7.47;;;;;;;;;;5038741;28;20108;-90
2022/03/30 08:15:12;;;;;;;16.33;7.18;;;;;;;;;;5039716;28;20025;-88
2022/03/30 08:17:38;;;;;;;26.58;7.00;;;;;;;;;;5021649;28;20037;-90
2022/03/30 08:20:05;;;;;;;32.30;9.82;;;;;;;;;;5022003;28;20025;-92
2022/03/30 08:22:31;;;;;;;23.35;7.60;;;;;;;;;;5020267;28;20057;-91
2022/03/30 08:25:07;;;;;;;25.60;8.75;;;;;;;;;;5039082;28;20076;-89
2022/03/30 08:27:34;;;;;;;36.03;9.45;;;;;;;;;;5039296;28;20319;-90
2022/03/30 08:30:00;;;;;;;17.73;6.97;;;;;;;;;;5039363;28;20036;-89
2022/03/30 08:32:27;;;;;;;39.95;8.65;;;;;;;;;;5038771;28;20034;-91
2022/03/30 08:34:54;;;;;;;22.52;7.38;;;;;;;;;;5039078;28;20029;-90
2022/03/30 08:37:21;;;;;;;24.40;7.03;;;;;;;;;;5038946;28;20033;-91
2022/03/30 08:39:50;;;;;;;23.92;6.28;;;;;;;;;;5021330;28;20144;-91
2022/03/30 08:42:17;;;;;;;23.83;6.47;;;;;;;;;;5039016;28;20367;-90
2022/03/30 08:44:46;;;;;;;25.92;7.63;;;;;;;;;;5038846;28;20025;-94
2022/03/30 08:47:12;;;;;;;31.20;9.15;;;;;;;;;;5039352;28;20022;-94
2022/03/30 08:49:39;;;;;;;23.38;7.25;;;;;;;;;;5039744;28;20033;-94
2022/03/30 08:52:06;;;;;;;19.23;6.78;;;;;;;;;;5021789;28;20041;-94
2022/03/30 08:54:33;;;;;;;20.25;6.63;;;;;;;;;;5039241;28;20049;-94
2022/03/30 08:56:59;;;;;;;27.10;7.55;;;;;;;;;;5039093;28;20305;-94
2022/03/30 08:59:25;;;;;;;29.55;7.78;;;;;;;;;;5038770;28;20082;-95
2022/03/30 09:01:54;;;;;;;23.80;7.18;;;;;;;;;;5038395;28;20033;-96
2022/03/30 09:04:21;;;;;;;23.50;6.80;;;;;;;;;;5038752;28;20026;-95
2022/03/30 09:06:51;;;;;;;22.05;8.23;;;;;;;;;;5023103;28;20038;-95
2022/03/30 09:09:27;;;;;;;26.15;7.80;;;;;;;;;;5039092;28;20045;-96
2022/03/30 09:11:55;;;;;;;16.33;6.70;;;;;;;;;;5038390;28;20030;-93
2022/03/30 09:14:24;;;;;;;28.88;6.82;;;;;;;;;;5021403;28;20136;-96
2022/03/30 09:16:52;;;;;;;20.42;7.32;;;;;;;;;;5041426;28;20060;-96
2022/03/30 09:19:19;;;;;;;18.88;8.27;;;;;;;;;;5021170;28;20372;-95
2022/03/30 09:21:48;;;;;;;22.90;6.38;;;;;;;;;;5038598;28;20026;-96
2022/03/30 09:24:15;;;;;;;25.73;7.63;;;;;;;;;;5040515;28;20104;-96
2022/03/30 09:38:04;;;;;;;26.95;9.23;;;;;;;;;;6216478;22;2736871;-96
2022/03/30 09:40:39;;;;;;;25.05;7.57;;;;;;;;;;6292666;22;20079;-95
2022/03/30 09:43:19;;;;;;;24.70;8.52;;;;;;;;;;6299311;22;20011;-95
2022/03/30 09:45:53;;;;;;;27.73;8.80;;;;;;;;;;6296722;22;20261;-94
2022/03/30 09:48:21;;;;;;;32.53;9.95;;;;;;;;;;6293406;22;20349;-95
2022/03/30 09:50:51;;;;;;;22.55;7.45;;;;;;;;;;6292572;22;19999;-95
2022/03/30 09:53:18;;;;;;;23.58;8.20;;;;;;;;;;6293942;22;20054;-95
2022/03/30 09:58:48;;;;;;;29.85;8.82;;;;;;;;;;6299814;22;20006;-94
2022/03/30 10:01:19;;;;;;;22.15;7.55;;;;;;;;;;6299835;22;20292;-94
2022/03/30 10:03:55;;;;;;;27.80;11.93;;;;;;;;;;6298807;22;20045;-96
2022/03/30 10:06:21;;;;;;;29.15;8.30;;;;;;;;;;6301057;22;20011;-96
2022/03/30 10:08:55;;;;;;;22.17;8.38;;;;;;;;;;6313119;22;19995;-96
2022/03/30 10:11:24;;;;;;;25.20;8.88;;;;;;;;;;6310390;22;20026;-96
2022/03/30 10:16:29;;;;;;;32.40;10.60;;;;;;;;;;6265745;22;20053;-96
2022/03/30 10:18:57;;;;;;;25.40;8.07;;;;;;;;;;6247718;23;19988;-96
2022/03/30 10:21:24;;;;;;;35.95;9.68;;;;;;;;;;6245607;23;20015;-95
2022/03/30 10:24:19;;;;;;;19.20;8.75;;;;;;;;;;6243511;23;20008;-96
2022/03/30 10:27:04;;;;;;;24.88;7.25;;;;;;;;;;6148304;23;20005;-96
2022/03/30 10:29:31;;;;;;;22.23;7.38;;;;;;;;;;6147809;23;19998;-96
2022/03/30 10:32:10;;;;;;;23.00;8.02;;;;;;;;;;6149447;23;20029;-95
2022/03/30 10:34:41;;;;;;;22.23;8.25;;;;;;;;;;6155658;23;20005;-95
2022/03/30 10:37:12;;;;;;;23.02;8.07;;;;;;;;;;6151779;23;20070;-96
2022/03/30 10:39:54;;;;;;;19.20;6.93;;;;;;;;;;6140588;23;20017;-96
2022/03/30 10:42:22;;;;;;;26.20;7.20;;;;;;;;;;6117619;23;20006;-96
2022/03/30 10:44:57;;;;;;;18.20;6.20;;;;;;;;;;6119120;23;20005;-96
2022/03/30 10:47:26;;;;;;;21.88;6.72;;;;;;;;;;6145042;23;20017;-96
2022/03/30 10:49:56;;;;;;;24.33;7.50;;;;;;;;;;6119184;23;20277;-96
2022/03/30 10:52:42;;;;;;;23.10;6.88;;;;;;;;;;6143558;23;20006;-96
2022/03/30 10:55:14;;;;;;;24.70;7.13;;;;;;;;;;6144027;23;20006;-95
2022/03/30 10:57:58;;;;;;;20.80;6.97;;;;;;;;;;6138628;23;20029;-94
2022/03/30 11:00:29;;;;;;;21.30;6.55;;;;;;;;;;6135694;23;20109;-96
2022/03/30 11:03:16;;;;;;;21.17;7.45;;;;;;;;;;6177239;23;20008;-96
2022/03/30 11:05:46;;;;;;;21.98;7.55;;;;;;;;;;6229305;23;20008;-95
2022/03/30 11:08:31;;;;;;;16.50;6.65;;;;;;;;;;6230753;23;20065;-95
2022/03/30 11:10:57;;;;;;;23.52;6.75;;;;;;;;;;6228745;23;20004;-95
2022/03/30 11:13:25;;;;;;;15.00;7.20;;;;;;;;;;6228000;23;20004;-95
2022/03/30 11:16:00;;;;;;;22.40;7.00;;;;;;;;;;6231280;23;20028;-96
2022/03/30 11:18:27;;;;;;;17.35;6.78;;;;;;;;;;6231165;23;20009;-96
2022/03/30 11:21:11;;;;;;;23.55;7.88;;;;;;;;;;6231830;23;20000;-95
2022/03/30 11:23:53;;;;;;;16.10;7.05;;;;;;;;;;6231252;23;19996;-94
2022/03/30 11:26:20;;;;;;;16.45;7.28;;;;;;;;;;6202879;23;20008;-95
2022/03/30 11:28:46;;;;;;;20.60;7.05;;;;;;;;;;6229897;23;20360;-95
2022/03/30 11:31:22;;;;;;;21.80;8.55;;;;;;;;;;6204721;23;20008;-96
2022/03/30 11:57:25;;;;;;;20.40;7.00;;;;;;;;;;6260358;22;20030;-96
2022/03/30 12:11:13;;;;;;;26.23;7.55;;;;;;;;;;6212790;22;20885;-95
2022/03/30 13:06:19;;;;;;;;;;;;;;;;;;6238807;23;20034;-96
2022/03/30 13:17:21;;;;;;;32.83;13.63;;;;;;;;;;6300109;22;20047;-96
2022/03/30 13:19:58;;;;;;;28.38;13.00;;;;;;;;;;6212350;23;20088;-96
2022/03/30 13:22:25;;;;;;;25.20;11.55;;;;;;;;;;6206794;23;20088;-95
2022/03/30 13:37:50;;;;;;;20.65;11.15;;;;;;;;;;6278660;22;20036;-96
2022/03/30 13:40:18;;;;;;;20.55;8.48;;;;;;;;;;6262009;23;20007;-96
2022/03/30 13:42:45;;;;;;;23.05;9.38;;;;;;;;;;6235148;23;20004;-96
2022/03/30 13:45:14;;;;;;;30.60;9.85;;;;;;;;;;6263843;23;20015;-96
2022/03/30 13:47:46;;;;;;;23.38;9.60;;;;;;;;;;6259052;23;20431;-96
2022/03/30 13:50:13;;;;;;;21.92;9.27;;;;;;;;;;6252604;23;20256;-96
2022/03/30 13:52:39;;;;;;;21.73;8.73;;;;;;;;;;6255183;23;20000;-95
2022/03/30 13:55:08;;;;;;;22.25;8.75;;;;;;;;;;6231264;23;20001;-96
2022/03/30 13:57:34;;;;;;;17.88;7.13;;;;;;;;;;6229471;23;20004;-95
2022/03/30 14:00:00;;;;;;;20.65;8.40;;;;;;;;;;6262786;23;20016;-96
2022/03/30 14:02:26;;;;;;;24.02;8.50;;;;;;;;;;6255249;23;20019;-96
2022/03/30 14:05:00;;;;;;;79.45;10.52;;;;;;;;;;6258240;22;21046;-96
2022/03/30 14:07:30;;;;;;;22.35;7.60;;;;;;;;;;6189405;23;20389;-96
2022/03/30 14:09:56;;;;;;;25.83;9.63;;;;;;;;;;6183458;23;20015;-96
2022/03/30 14:12:27;;;;;;;16.63;8.65;;;;;;;;;;6197996;23;20011;-94
2022/03/30 14:15:14;;;;;;;31.13;10.90;;;;;;;;;;6211045;23;20088;-96
2022/03/30 14:17:40;;;;;;;28.40;11.07;;;;;;;;;;6231265;23;20371;-96
2022/03/30 14:20:08;;;;;;;41.80;20.63;;;;;;;;;;6232907;23;20382;-96
2022/03/30 14:22:34;;;;;;;27.67;12.75;;;;;;;;;;6237726;23;20007;-95
2022/03/30 14:25:03;;;;;;;27.23;12.02;;;;;;;;;;6212118;23;19997;-96
2022/03/30 14:27:31;;;;;;;34.58;11.70;;;;;;;;;;6238502;23;19996;-96
2022/03/30 14:30:01;;;;;;;40.67;10.77;;;;;;;;;;6215337;23;20008;-96
2022/03/30 14:32:27;;;;;;;26.08;10.02;;;;;;;;;;6232253;23;20367;-95
2022/03/30 14:34:54;;;;;;;29.17;10.50;;;;;;;;;;6234137;23;20088;-96
2022/03/30 14:37:21;;;;;;;30.00;9.93;;;;;;;;;;6235298;23;20031;-96
2022/03/30 14:39:49;;;;;;;39.28;11.18;;;;;;;;;;6237905;23;20061;-96
2022/03/30 14:42:20;;;;;;;36.40;10.60;;;;;;;;;;6239274;23;19997;-96
2022/03/30 14:44:47;;;;;;;31.52;10.63;;;;;;;;;;6207269;23;20009;-96
2022/03/30 14:49:58;;;;;;;32.50;13.98;;;;;;;;;;6272487;22;19922;-96
2022/03/30 14:52:25;;;;;;;28.80;11.43;;;;;;;;;;6239805;23;20016;-94
2022/03/30 14:55:13;;;;;;;37.42;13.43;;;;;;;;;;6244534;23;20076;-96
2022/03/30 15:21:49;;;;;;;34.15;12.18;;;;;;;;;;6284480;22;20028;-96
2022/03/30 15:24:23;;;;;;;23.45;11.45;;;;;;;;;;6282282;22;20271;-96
2022/03/30 15:26:50;;;;;;;52.83;10.77;;;;;;;;;;6241504;22;20032;-96
2022/03/30 16:46:41;;;;;;;42.58;14.48;;;;;;;;;;6271444;23;20019;-96
2022/03/30 16:49:12;;;;;;;35.83;14.25;;;;;;;;;;6272177;23;20015;-95
2022/03/30 17:38:22;;;;;;;44.55;21.75;;;;;;;;;;6245237;22;20055;-93
2022/03/30 17:40:48;;;;;;;52.42;21.58;;;;;;;;;;6199331;23;20024;-94
2022/03/30 17:43:15;;;;;;;49.58;21.60;;;;;;;;;;6224070;23;20029;-96
2022/03/30 17:53:42;;;;;;;40.67;17.13;;;;;;;;;;6255829;23;20062;-94
2022/03/30 17:56:08;;;;;;;35.92;15.88;;;;;;;;;;6253173;22;20012;-96
2022/03/30 17:58:34;;;;;;;38.70;15.93;;;;;;;;;;6252978;23;20000;-94
2022/03/30 18:01:01;;;;;;;42.25;17.23;;;;;;;;;;6253403;23;20004;-94
2022/03/30 18:03:27;;;;;;;63.58;28.65;;;;;;;;;;6252520;23;20000;-94
2022/03/30 18:05:53;;;;;;;48.72;20.35;;;;;;;;;;6253407;23;20254;-95
2022/03/30 18:08:19;;;;;;;45.10;19.33;;;;;;;;;;6254734;23;20298;-94
2022/03/30 18:10:45;;;;;;;45.30;15.57;;;;;;;;;;6253043;23;20012;-95
2022/03/30 18:13:15;;;;;;;30.95;12.63;;;;;;;;;;6251236;23;20009;-95
2022/03/30 18:15:41;;;;;;;42.97;20.20;;;;;;;;;;6251990;23;20053;-92
2022/03/30 18:18:12;;;;;;;47.85;20.13;;;;;;;;;;6253309;23;20171;-92
2022/03/30 18:20:39;;;;;;;42.95;20.80;;;;;;;;;;6251929;23;20008;-93
2022/03/30 18:23:06;;;;;;;55.45;26.77;;;;;;;;;;6253394;22;20026;-92
2022/03/30 18:25:37;;;;;;;57.40;29.33;;;;;;;;;;6253135;22;20000;-92
2022/03/30 18:28:03;;;;;;;58.03;27.45;;;;;;;;;;6252753;22;20042;-94
2022/03/30 18:30:29;;;;;;;47.88;22.60;;;;;;;;;;6252288;23;20000;-93
2022/03/30 18:32:57;;;;;;;37.85;18.60;;;;;;;;;;6253326;23;20001;-93
2022/03/30 18:35:23;;;;;;;52.72;21.33;;;;;;;;;;6252062;22;20259;-93
2022/03/30 18:37:49;;;;;;;43.17;18.23;;;;;;;;;;6251373;23;20004;-93
2022/03/30 18:40:16;;;;;;;33.20;14.25;;;;;;;;;;6252832;23;20001;-92
2022/03/30 18:43:01;;;;;;;29.83;12.63;;;;;;;;;;6252547;22;20000;-93
2022/03/30 18:45:27;;;;;;;21.55;10.43;;;;;;;;;;6252546;23;20068;-92
2022/03/30 18:47:53;;;;;;;26.35;12.20;;;;;;;;;;6253053;23;20067;-92
2022/03/30 18:50:19;;;;;;;28.20;12.43;;;;;;;;;;6252670;23;20024;-92
2022/03/30 18:52:45;;;;;;;30.38;15.05;;;;;;;;;;6252901;23;20009;-92
2022/03/30 18:55:12;;;;;;;42.35;19.00;;;;;;;;;;6252369;23;20000;-95
2022/03/30 18:57:38;;;;;;;42.50;20.40;;;;;;;;;;6252443;23;20020;-94
2022/03/30 19:00:08;;;;;;;47.20;21.60;;;;;;;;;;6254673;23;20003;-94
2022/03/30 19:03:18;;;;;;;39.67;17.30;;;;;;;;;;6252643;23;19996;-92
2022/03/30 19:05:21;;;;;;;32.92;14.35;;;;;;;;;;6252574;23;20023;-92
2022/03/30 19:07:47;;;;;;;33.15;15.85;;;;;;;;;;6251869;23;20000;-93
2022/03/30 19:10:13;;;;;;;36.88;14.00;;;;;;;;;;6251289;23;20035;-92
2022/03/30 19:12:39;;;;;;;24.50;10.60;;;;;;;;;;6252405;23;20268;-94
2022/03/30 19:15:05;;;;;;;22.70;9.35;;;;;;;;;;6251050;23;20359;-93
2022/03/30 19:17:33;;;;;;;34.38;9.68;;;;;;;;;;6252274;23;20046;-94
2022/03/30 19:19:59;;;;;;;23.15;9.95;;;;;;;;;;6252975;22;20359;-94
2022/03/30 19:22:25;;;;;;;21.98;10.40;;;;;;;;;;6252550;22;20259;-93
2022/03/30 19:24:51;;;;;;;24.52;9.35;;;;;;;;;;6251216;23;20027;-92
2022/03/30 19:27:17;;;;;;;23.98;8.38;;;;;;;;;;6252222;23;20374;-94
2022/03/30 19:29:43;;;;;;;24.98;10.13;;;;;;;;;;6251144;23;20354;-93
2022/03/30 19:32:11;;;;;;;28.63;9.93;;;;;;;;;;6252698;23;20000;-93